Time;durP1;ratioP1;P1;durP2;ratioP2;P2;SDS_P1;SDS_P2;PMS_P1;PMS_P2;Temp;Humidity;BMP_temperature;BMP_pressure;BME280_temperature;BME280_humidity;BME280_pressure;Samples;Min_cycle;Max_cycle;Signal;HPM_P1;HPM_P2
2023/09/04 00:00:15;;;;;;;16.90;11.83;;;17.90;99.90;;;;;;7281748;19;20290;-79
2023/09/04 00:02:43;;;;;;;20.07;12.83;;;17.90;99.90;;;;;;7283591;19;20193;-79
2023/09/04 00:05:09;;;;;;;18.50;12.03;;;17.90;99.90;;;;;;7281799;19;20204;-79
2023/09/04 00:07:34;;;;;;;17.97;11.70;;;18.00;99.90;;;;;;7282236;19;20196;-78
2023/09/04 00:10:03;;;;;;;20.87;12.87;;;18.00;99.90;;;;;;7288293;19;20192;-79
2023/09/04 00:12:29;;;;;;;17.87;12.73;;;18.10;99.90;;;;;;7288763;19;20196;-79
2023/09/04 00:14:55;;;;;;;17.50;12.50;;;18.20;99.90;;;;;;7310999;19;20189;-79
2023/09/04 00:17:21;;;;;;;16.53;11.73;;;18.20;99.90;;;;;;7288865;19;20218;-79
2023/09/04 00:19:46;;;;;;;18.00;11.10;;;18.20;99.90;;;;;;7288962;19;20193;-79
2023/09/04 00:22:13;;;;;;;16.87;10.00;;;18.10;99.90;;;;;;7290129;19;20192;-80
2023/09/04 00:24:38;;;;;;;15.63;10.20;;;18.00;99.90;;;;;;7289888;19;20232;-79
2023/09/04 00:27:04;;;;;;;14.80;9.87;;;17.80;99.90;;;;;;7288280;19;20659;-78
2023/09/04 00:29:30;;;;;;;17.17;10.60;;;17.70;99.90;;;;;;7288545;19;20181;-79
2023/09/04 00:31:56;;;;;;;18.40;10.63;;;17.60;99.90;;;;;;7310199;19;20192;-78
2023/09/04 00:34:21;;;;;;;16.13;10.03;;;17.50;99.90;;;;;;7287569;19;20196;-79
2023/09/04 00:36:47;;;;;;;16.83;10.10;;;17.50;99.90;;;;;;7287796;19;20235;-79
2023/09/04 00:39:13;;;;;;;17.70;11.83;;;17.50;99.90;;;;;;7287280;19;20200;-79
2023/09/04 00:41:39;;;;;;;14.30;9.70;;;17.40;99.90;;;;;;7288858;19;20200;-79
2023/09/04 00:44:05;;;;;;;19.27;11.27;;;17.40;99.90;;;;;;7289124;19;20177;-79
2023/09/04 00:46:31;;;;;;;19.40;11.80;;;17.40;99.90;;;;;;7287452;19;20193;-79
2023/09/04 00:48:57;;;;;;;19.87;11.47;;;17.40;99.90;;;;;;7309869;19;20189;-79
2023/09/04 00:51:23;;;;;;;15.37;11.20;;;17.40;99.90;;;;;;7289728;19;20284;-79
2023/09/04 00:53:49;;;;;;;19.03;12.20;;;17.30;99.90;;;;;;7286553;19;20186;-79
2023/09/04 00:56:15;;;;;;;19.20;11.87;;;17.30;99.90;;;;;;7286912;19;20209;-79
2023/09/04 00:58:41;;;;;;;20.70;13.10;;;17.20;99.90;;;;;;7287224;19;20215;-79
2023/09/04 01:01:08;;;;;;;21.83;13.33;;;17.20;99.90;;;;;;7286712;19;20181;-79
2023/09/04 01:03:34;;;;;;;21.17;13.50;;;17.30;99.90;;;;;;7286613;19;20211;-79
2023/09/04 01:06:01;;;;;;;19.03;12.17;;;17.30;99.90;;;;;;7286795;19;20895;-79
2023/09/04 01:08:27;;;;;;;19.57;12.83;;;17.40;99.90;;;;;;7309199;19;20181;-79
2023/09/04 01:11:14;;;;;;;19.83;12.63;;;17.30;99.90;;;;;;7287462;19;20196;-78
2023/09/04 01:13:53;;;;;;;18.10;13.73;;;17.40;99.90;;;;;;7184976;19;2004738;-79
2023/09/04 01:16:20;;;;;;;19.13;12.90;;;17.40;99.90;;;;;;7287126;19;20184;-79
2023/09/04 01:18:47;;;;;;;19.80;12.90;;;17.40;99.90;;;;;;7286748;19;20684;-79
2023/09/04 01:21:14;;;;;;;19.57;12.60;;;17.40;99.90;;;;;;7285357;19;20195;-80
2023/09/04 01:23:40;;;;;;;16.23;11.20;;;17.40;99.90;;;;;;7284130;19;20223;-79
2023/09/04 01:26:20;;;;;;;16.80;12.13;;;17.30;99.90;;;;;;7281892;19;20192;-79
2023/09/04 01:28:52;;;;;;;17.97;11.80;;;17.20;99.90;;;;;;7283814;19;20197;-79
2023/09/04 01:31:35;;;;;;;19.73;13.13;;;17.10;99.90;;;;;;7284453;19;20186;-80
2023/09/04 01:34:13;;;;;;;21.00;12.27;;;17.10;99.90;;;;;;7264201;19;20193;-78
2023/09/04 01:36:40;;;;;;;17.10;10.90;;;17.20;99.90;;;;;;7283385;19;20260;-79
2023/09/04 01:39:07;;;;;;;17.00;11.50;;;17.10;99.90;;;;;;7284265;19;20229;-79
2023/09/04 01:41:37;;;;;;;17.10;11.57;;;17.00;99.90;;;;;;7283161;19;20184;-79
2023/09/04 01:44:03;;;;;;;17.17;11.07;;;16.90;99.90;;;;;;7285210;19;20248;-79
2023/09/04 01:46:29;;;;;;;17.40;11.63;;;16.80;99.90;;;;;;7289617;19;20208;-80
2023/09/04 01:48:55;;;;;;;19.10;12.97;;;16.80;99.90;;;;;;7305430;19;20193;-79
2023/09/04 01:51:20;;;;;;;20.77;13.70;;;16.70;99.90;;;;;;7283950;19;20208;-79
2023/09/04 01:53:46;;;;;;;19.20;12.43;;;16.70;99.90;;;;;;7284571;19;20191;-79
2023/09/04 01:56:12;;;;;;;19.50;13.87;;;16.70;99.90;;;;;;7285525;19;20190;-79
2023/09/04 01:58:38;;;;;;;19.03;13.43;;;16.70;99.90;;;;;;7284898;19;20192;-79
2023/09/04 02:01:03;;;;;;;22.33;12.57;;;16.70;99.90;;;;;;7285243;19;20188;-77
2023/09/04 02:03:29;;;;;;;19.57;12.83;;;16.80;99.90;;;;;;7288408;19;20185;-79
2023/09/04 02:05:55;;;;;;;22.20;14.27;;;16.80;99.90;;;;;;7306621;19;20188;-79
2023/09/04 02:08:23;;;;;;;21.87;13.30;;;16.80;99.90;;;;;;7284618;19;20197;-79
2023/09/04 02:10:49;;;;;;;21.83;13.10;;;16.80;99.90;;;;;;7285338;19;20186;-80
2023/09/04 02:13:15;;;;;;;22.93;14.00;;;16.80;99.90;;;;;;7284841;19;20188;-79
2023/09/04 02:15:41;;;;;;;24.90;14.33;;;16.80;99.90;;;;;;7285738;19;20207;-79
2023/09/04 02:18:06;;;;;;;23.03;15.23;;;16.70;99.90;;;;;;7284562;19;20198;-79
2023/09/04 02:20:32;;;;;;;25.10;15.20;;;16.70;99.90;;;;;;7283756;19;20279;-79
2023/09/04 02:22:58;;;;;;;23.00;14.23;;;16.70;99.90;;;;;;7303229;19;20711;-79
2023/09/04 02:25:25;;;;;;;26.57;14.57;;;16.70;99.90;;;;;;7306392;19;20185;-78
2023/09/04 02:27:51;;;;;;;23.37;15.80;;;16.60;99.90;;;;;;7284563;19;20188;-80
2023/09/04 02:30:18;;;;;;;22.13;15.30;;;16.50;99.90;;;;;;7283915;19;20209;-79
2023/09/04 02:32:44;;;;;;;25.83;14.70;;;16.60;99.90;;;;;;7284637;19;20249;-79
2023/09/04 02:35:10;;;;;;;25.47;16.50;;;16.50;99.90;;;;;;7284661;19;20658;-78
2023/09/04 02:37:35;;;;;;;21.87;14.87;;;16.60;99.90;;;;;;7284442;19;20198;-79
2023/09/04 02:40:01;;;;;;;27.93;16.87;;;16.50;99.90;;;;;;7283242;19;20196;-79
2023/09/04 02:42:30;;;;;;;22.07;15.07;;;16.50;99.90;;;;;;7307797;19;20755;-79
2023/09/04 02:44:56;;;;;;;22.57;14.80;;;16.50;99.90;;;;;;7286516;19;20199;-78
2023/09/04 02:47:22;;;;;;;27.17;17.17;;;16.50;99.90;;;;;;7283628;19;20556;-78
2023/09/04 02:49:48;;;;;;;25.23;16.73;;;16.40;99.90;;;;;;7285460;19;20216;-78
2023/09/04 02:52:14;;;;;;;27.10;17.03;;;16.50;99.90;;;;;;7282089;19;20264;-79
2023/09/04 02:54:40;;;;;;;28.33;16.93;;;16.40;99.90;;;;;;7283312;19;20793;-78
2023/09/04 02:57:06;;;;;;;27.63;18.23;;;16.40;99.90;;;;;;7284129;19;20184;-79
2023/09/04 02:59:38;;;;;;;31.00;18.77;;;16.30;99.90;;;;;;7283002;19;20248;-79
2023/09/04 03:02:04;;;;;;;29.50;16.10;;;16.30;99.90;;;;;;7284085;19;20202;-79
2023/09/04 03:04:30;;;;;;;23.10;16.27;;;16.30;99.90;;;;;;7284305;19;20591;-78
2023/09/04 03:06:55;;;;;;;24.57;14.30;;;16.20;99.90;;;;;;7305908;19;20190;-78
2023/09/04 03:09:21;;;;;;;23.60;15.37;;;16.10;99.90;;;;;;7284069;19;20199;-79
2023/09/04 03:11:47;;;;;;;22.03;13.87;;;16.00;99.90;;;;;;7282636;19;20199;-80
2023/09/04 03:14:15;;;;;;;23.33;14.10;;;16.00;99.90;;;;;;7282635;19;20192;-78
2023/09/04 03:16:41;;;;;;;20.87;14.23;;;16.10;99.90;;;;;;7283097;19;20198;-77
2023/09/04 03:19:07;;;;;;;20.93;12.43;;;16.10;99.90;;;;;;7282673;19;20198;-78
2023/09/04 03:21:33;;;;;;;20.47;12.57;;;16.00;99.90;;;;;;7282104;19;20181;-80
2023/09/04 03:23:58;;;;;;;19.13;12.43;;;15.80;99.90;;;;;;7295884;19;20188;-78
2023/09/04 03:26:26;;;;;;;22.20;14.37;;;15.70;99.90;;;;;;7300178;19;20193;-79
2023/09/04 03:28:51;;;;;;;24.90;15.17;;;15.70;99.90;;;;;;7282092;19;20182;-78
2023/09/04 03:31:18;;;;;;;26.50;16.20;;;15.70;99.90;;;;;;7282865;19;20211;-79
2023/09/04 03:33:44;;;;;;;22.17;14.57;;;15.70;99.90;;;;;;7283221;19;20564;-78
2023/09/04 03:36:11;;;;;;;24.07;14.30;;;15.70;99.90;;;;;;7281798;19;20187;-78
2023/09/04 03:38:38;;;;;;;21.60;12.87;;;15.70;99.90;;;;;;7284251;19;20187;-79
2023/09/04 03:41:04;;;;;;;23.77;13.33;;;15.50;99.90;;;;;;7281172;19;20208;-79
2023/09/04 03:43:29;;;;;;;24.00;15.27;;;15.50;99.90;;;;;;7283770;19;20188;-78
2023/09/04 03:45:58;;;;;;;31.73;19.33;;;15.60;99.90;;;;;;7304830;19;20212;-79
2023/09/04 03:48:25;;;;;;;34.03;19.63;;;15.70;99.90;;;;;;7273591;19;20290;-78
2023/09/04 03:50:51;;;;;;;28.53;17.47;;;15.90;99.90;;;;;;7280881;19;20195;-78
2023/09/04 03:53:17;;;;;;;26.43;15.73;;;15.90;99.90;;;;;;7281934;19;20579;-79
2023/09/04 03:55:42;;;;;;;23.87;14.47;;;15.70;99.90;;;;;;7282535;19;20199;-78
2023/09/04 03:58:08;;;;;;;26.97;17.57;;;15.70;99.90;;;;;;7282408;19;20187;-78
2023/09/04 04:00:34;;;;;;;31.47;19.57;;;15.70;99.90;;;;;;7281448;19;20203;-78
2023/09/04 04:03:00;;;;;;;31.43;19.53;;;15.70;99.90;;;;;;7284592;19;20565;-79
2023/09/04 04:05:28;;;;;;;34.80;20.50;;;15.80;99.90;;;;;;7303709;19;20295;-78
2023/09/04 04:07:53;;;;;;;32.20;18.40;;;15.90;99.90;;;;;;7282648;19;20585;-78
2023/09/04 04:10:19;;;;;;;30.77;18.63;;;15.80;99.90;;;;;;7280398;19;20176;-78
2023/09/04 04:12:46;;;;;;;28.07;17.63;;;15.70;99.90;;;;;;7282453;19;20563;-78
2023/09/04 04:15:12;;;;;;;29.17;17.03;;;15.70;99.90;;;;;;7280483;19;20719;-78
2023/09/04 04:17:38;;;;;;;29.00;16.83;;;15.60;99.90;;;;;;7278583;19;20203;-78
2023/09/04 04:20:12;;;;;;;31.63;18.13;;;15.60;99.90;;;;;;7282814;19;20182;-78
2023/09/04 04:22:41;;;;;;;31.20;18.13;;;15.60;99.90;;;;;;7280276;19;20209;-79
2023/09/04 04:25:10;;;;;;;33.00;19.20;;;15.70;99.90;;;;;;7281925;19;20228;-79
2023/09/04 04:27:36;;;;;;;30.20;18.57;;;15.70;99.90;;;;;;7280476;19;20190;-78
2023/09/04 04:30:02;;;;;;;28.00;16.83;;;15.60;99.90;;;;;;7282397;19;20639;-79
2023/09/04 04:32:29;;;;;;;23.43;15.23;;;15.70;99.90;;;;;;7285657;19;20195;-79
2023/09/04 04:34:56;;;;;;;24.87;14.80;;;15.60;99.90;;;;;;7304706;19;20204;-79
2023/09/04 04:37:23;;;;;;;28.90;16.17;;;15.50;99.90;;;;;;7280011;19;20906;-79
2023/09/04 04:39:50;;;;;;;24.57;15.07;;;15.50;99.90;;;;;;7277533;19;20211;-79
2023/09/04 04:42:16;;;;;;;25.77;15.90;;;15.50;99.90;;;;;;7279851;19;20287;-78
2023/09/04 04:44:42;;;;;;;26.53;15.63;;;15.40;99.90;;;;;;7278704;19;20528;-79
2023/09/04 04:47:08;;;;;;;29.73;18.10;;;15.40;99.90;;;;;;7279962;19;20184;-79
2023/09/04 04:49:35;;;;;;;31.50;18.20;;;15.40;99.90;;;;;;7280180;19;20284;-79
2023/09/04 04:52:01;;;;;;;31.07;18.93;;;15.50;99.90;;;;;;7278492;19;20202;-79
2023/09/04 04:54:27;;;;;;;34.10;18.77;;;15.50;99.90;;;;;;7305685;19;20223;-81
2023/09/04 04:56:52;;;;;;;30.07;19.40;;;15.60;99.90;;;;;;7288997;19;20182;-79
2023/09/04 04:59:18;;;;;;;33.70;19.67;;;15.60;99.90;;;;;;7286636;19;20235;-77
2023/09/04 05:01:45;;;;;;;34.37;19.77;;;15.60;99.90;;;;;;7288078;19;20191;-79
2023/09/04 05:04:11;;;;;;;31.00;18.40;;;15.60;99.90;;;;;;7287186;19;20202;-79
2023/09/04 05:06:38;;;;;;;32.50;17.93;;;15.50;99.90;;;;;;7285353;19;20548;-79
2023/09/04 05:09:05;;;;;;;28.97;16.83;;;15.50;99.90;;;;;;7287052;19;20316;-79
2023/09/04 05:11:32;;;;;;;27.03;17.43;;;15.40;99.90;;;;;;7287211;19;20195;-78
2023/09/04 05:13:58;;;;;;;25.83;16.23;;;15.40;99.90;;;;;;7307654;19;20186;-80
2023/09/04 05:16:28;;;;;;;31.60;17.67;;;15.40;99.90;;;;;;7287718;19;20199;-78
2023/09/04 05:18:54;;;;;;;31.63;17.50;;;15.50;99.90;;;;;;7286315;19;20205;-79
2023/09/04 05:21:20;;;;;;;30.47;17.70;;;15.50;99.90;;;;;;7286180;19;20965;-79
2023/09/04 05:23:47;;;;;;;28.17;18.03;;;15.60;99.90;;;;;;7286056;19;20182;-79
2023/09/04 05:26:13;;;;;;;35.27;18.93;;;15.50;99.90;;;;;;7285197;19;20271;-79
2023/09/04 05:28:39;;;;;;;31.13;18.53;;;15.50;99.90;;;;;;7285707;19;20336;-79
2023/09/04 05:31:05;;;;;;;28.80;17.40;;;15.60;99.90;;;;;;7282642;19;20198;-79
2023/09/04 05:33:30;;;;;;;29.23;17.20;;;15.70;99.90;;;;;;7284048;19;20205;-78
2023/09/04 05:35:57;;;;;;;30.23;18.47;;;15.70;99.90;;;;;;7306738;19;20194;-77
2023/09/04 05:38:26;;;;;;;30.67;18.10;;;15.80;99.90;;;;;;7283987;19;20218;-78
2023/09/04 05:40:55;;;;;;;31.93;17.83;;;15.90;99.90;;;;;;7284142;19;20655;-77
2023/09/04 05:43:25;;;;;;;28.97;17.53;;;16.00;99.90;;;;;;7285286;19;20190;-79
2023/09/04 05:45:50;;;;;;;32.60;16.90;;;16.10;99.90;;;;;;7283848;19;20206;-79
2023/09/04 05:48:16;;;;;;;28.60;17.00;;;16.40;99.90;;;;;;7283521;19;20187;-79
2023/09/04 05:50:42;;;;;;;24.63;15.33;;;16.80;99.90;;;;;;7284393;19;20714;-79
2023/09/04 05:53:08;;;;;;;27.33;15.60;;;17.10;99.90;;;;;;7283479;19;20192;-79
2023/09/04 05:55:36;;;;;;;24.70;13.57;;;17.60;99.90;;;;;;7284254;19;20297;-79
2023/09/04 05:58:03;;;;;;;23.53;14.13;;;18.30;99.90;;;;;;7285302;19;20204;-78
2023/09/04 06:00:29;;;;;;;18.50;11.60;;;18.80;99.90;;;;;;7304076;19;20196;-79
2023/09/04 06:02:55;;;;;;;20.27;11.83;;;18.90;99.90;;;;;;7302721;19;20181;-80
2023/09/04 06:05:24;;;;;;;22.50;12.07;;;18.80;99.90;;;;;;7281399;19;20544;-78
2023/09/04 06:07:50;;;;;;;21.43;11.90;;;18.80;99.90;;;;;;7285521;19;20194;-79
2023/09/04 06:10:15;;;;;;;19.83;11.47;;;18.80;99.90;;;;;;7285973;19;20201;-79
2023/09/04 06:12:41;;;;;;;20.13;11.57;;;18.70;99.90;;;;;;7285617;19;20181;-78
2023/09/04 06:15:09;;;;;;;20.50;11.93;;;18.60;99.90;;;;;;7282267;19;20223;-79
2023/09/04 06:17:35;;;;;;;19.43;11.10;;;18.50;99.90;;;;;;7284640;19;20197;-79
2023/09/04 06:20:02;;;;;;;20.43;11.37;;;18.60;99.90;;;;;;7285945;19;20195;-77
2023/09/04 06:22:28;;;;;;;19.03;11.03;;;18.60;99.90;;;;;;7307768;19;20193;-79
2023/09/04 06:24:54;;;;;;;21.33;12.00;;;18.70;99.90;;;;;;7284323;19;20193;-80
2023/09/04 06:27:19;;;;;;;21.30;12.13;;;18.70;99.90;;;;;;7284235;19;20204;-80
2023/09/04 06:29:45;;;;;;;16.63;11.10;;;18.70;99.90;;;;;;7284633;19;20200;-78
2023/09/04 06:32:14;;;;;;;20.77;12.13;;;18.60;99.90;;;;;;7282451;19;20198;-79
2023/09/04 06:34:40;;;;;;;21.20;12.27;;;18.50;99.90;;;;;;7283302;19;20200;-79
2023/09/04 06:37:05;;;;;;;23.03;13.13;;;18.50;99.90;;;;;;7278138;19;20200;-80
2023/09/04 06:39:31;;;;;;;22.43;12.93;;;18.40;99.90;;;;;;7283106;19;20184;-80
2023/09/04 06:41:57;;;;;;;23.63;12.80;;;18.50;99.90;;;;;;7306404;19;20197;-80
2023/09/04 06:44:28;;;;;;;18.03;11.63;;;18.80;99.90;;;;;;7282963;19;20184;-80
2023/09/04 06:46:54;;;;;;;19.13;11.30;;;19.40;99.90;;;;;;7285368;19;20277;-79
2023/09/04 06:49:19;;;;;;;19.43;11.10;;;20.20;99.90;;;;;;7284252;19;20509;-80
2023/09/04 06:51:45;;;;;;;16.50;10.53;;;21.10;99.90;;;;;;7282747;19;20191;-80
2023/09/04 06:54:11;;;;;;;18.97;11.10;;;22.00;99.90;;;;;;7284932;19;20190;-80
2023/09/04 06:56:38;;;;;;;15.93;10.23;;;22.60;99.90;;;;;;7284909;19;20214;-80
2023/09/04 06:59:04;;;;;;;15.37;10.20;;;23.10;99.90;;;;;;7284025;19;20193;-80
2023/09/04 07:01:30;;;;;;;18.10;10.17;;;24.00;99.90;;;;;;7290348;19;20199;-78
2023/09/04 07:03:56;;;;;;;16.57;9.57;;;25.20;99.90;;;;;;7306861;19;20308;-78
2023/09/04 07:06:21;;;;;;;14.13;8.43;;;25.80;99.90;;;;;;7283709;19;20192;-79
2023/09/04 07:08:47;;;;;;;14.00;8.80;;;26.10;99.90;;;;;;7282704;19;20217;-79
2023/09/04 07:11:13;;;;;;;16.30;8.57;;;26.80;99.90;;;;;;7283257;19;20618;-79
2023/09/04 07:13:39;;;;;;;13.23;8.65;;;27.40;99.90;;;;;;7283670;19;20217;-79
2023/09/04 07:16:04;;;;;;;13.18;7.95;;;28.40;99.90;;;;;;7283311;19;20185;-79
2023/09/04 07:18:30;;;;;;;15.07;7.88;;;29.40;99.90;;;;;;7287382;19;20224;-80
2023/09/04 07:20:56;;;;;;;12.20;6.75;;;30.50;99.90;;;;;;7305080;19;20192;-79
2023/09/04 07:23:22;;;;;;;11.20;7.22;;;31.50;99.90;;;;;;7282355;19;20181;-80
2023/09/04 07:25:48;;;;;;;12.15;7.20;;;32.20;99.90;;;;;;7284229;19;20193;-79
2023/09/04 07:28:14;;;;;;;11.35;6.90;;;32.70;99.90;;;;;;7283358;19;20774;-79
2023/09/04 07:30:39;;;;;;;11.23;6.28;;;33.20;99.90;;;;;;7284142;19;20188;-80
2023/09/04 07:33:05;;;;;;;11.57;6.90;;;33.10;99.90;;;;;;7281740;19;20648;-79
2023/09/04 07:35:31;;;;;;;13.88;7.05;;;33.10;99.90;;;;;;7283831;19;20189;-79
2023/09/04 07:37:57;;;;;;;10.27;6.40;;;33.60;99.90;;;;;;7305188;19;20184;-80
2023/09/04 07:40:22;;;;;;;10.35;6.05;;;34.50;99.10;;;;;;7282235;19;20213;-80
2023/09/04 07:42:48;;;;;;;10.93;6.20;;;35.30;97.80;;;;;;7282311;19;20193;-80
2023/09/04 07:45:15;;;;;;;8.32;5.97;;;35.10;95.80;;;;;;7282151;19;20220;-79
2023/09/04 07:47:41;;;;;;;8.60;5.72;;;34.90;94.40;;;;;;7283658;19;20193;-79
2023/09/04 07:50:07;;;;;;;9.32;5.60;;;34.40;93.70;;;;;;7283115;19;20193;-80
2023/09/04 07:52:33;;;;;;;11.80;5.82;;;34.50;93.60;;;;;;7280884;19;20185;-79
2023/09/04 07:54:58;;;;;;;8.05;5.30;;;35.10;94.40;;;;;;7303449;19;20193;-79
2023/09/04 07:57:27;;;;;;;8.65;5.95;;;35.90;92.90;;;;;;7283462;19;20188;-78
2023/09/04 07:59:52;;;;;;;8.90;4.88;;;36.90;90.00;;;;;;7281915;19;20710;-79
2023/09/04 08:02:18;;;;;;;9.13;4.53;;;36.80;87.40;;;;;;7282115;19;25445;-78
2023/09/04 08:04:44;;;;;;;7.18;4.88;;;37.10;85.70;;;;;;7283644;19;20196;-80
2023/09/04 08:07:10;;;;;;;6.32;4.18;;;37.50;84.00;;;;;;7279282;19;20200;-80
2023/09/04 08:09:36;;;;;;;6.63;4.22;;;37.10;80.60;;;;;;7282812;19;20191;-79
2023/09/04 08:12:02;;;;;;;7.15;4.47;;;35.60;80.50;;;;;;7282040;19;20540;-79
2023/09/04 08:14:33;;;;;;;7.05;4.47;;;35.00;83.80;;;;;;7303252;19;20187;-79
2023/09/04 08:17:03;;;;;;;10.35;4.32;;;34.90;84.10;;;;;;7281129;19;20176;-79
2023/09/04 08:19:28;;;;;;;6.75;4.70;;;34.50;84.10;;;;;;7304572;19;20224;-80
2023/09/04 08:21:58;;;;;;;7.18;4.45;;;34.00;86.10;;;;;;7280322;19;20648;-78
2023/09/04 08:24:23;;;;;;;7.35;4.05;;;33.70;86.90;;;;;;7281821;19;20185;-80
2023/09/04 08:26:49;;;;;;;6.93;4.25;;;34.30;87.00;;;;;;7281780;19;20648;-79
2023/09/04 08:29:15;;;;;;;6.30;4.18;;;34.80;84.50;;;;;;7284367;19;20252;-79
2023/09/04 08:31:41;;;;;;;6.47;4.03;;;35.70;82.20;;;;;;7286322;19;20257;-79
2023/09/04 08:34:06;;;;;;;5.55;4.07;;;35.10;82.40;;;;;;7286841;19;20192;-79
2023/09/04 08:36:32;;;;;;;7.47;3.80;;;34.60;83.50;;;;;;7283771;19;20671;-80
2023/09/04 08:38:58;;;;;;;6.25;3.70;;;34.60;83.20;;;;;;7308853;19;20661;-79
2023/09/04 08:41:27;;;;;;;6.82;3.85;;;35.40;83.20;;;;;;7286604;19;20188;-80
2023/09/04 08:43:53;;;;;;;5.70;3.55;;;35.70;79.50;;;;;;7284892;19;20188;-80
2023/09/04 08:46:20;;;;;;;6.47;3.85;;;36.60;80.00;;;;;;7285299;19;21143;-79
2023/09/04 08:48:47;;;;;;;8.48;3.80;;;37.10;77.30;;;;;;7284746;19;20652;-79
2023/09/04 08:51:14;;;;;;;6.57;3.67;;;37.40;76.80;;;;;;7287021;19;20664;-80
2023/09/04 08:53:40;;;;;;;8.23;3.80;;;37.90;76.40;;;;;;7287650;19;20199;-80
2023/09/04 08:56:06;;;;;;;6.63;3.78;;;38.30;76.70;;;;;;7287140;19;20197;-79
2023/09/04 08:58:32;;;;;;;6.80;3.70;;;38.40;72.60;;;;;;7285905;19;20652;-79
2023/09/04 09:00:58;;;;;;;6.20;4.00;;;38.60;73.30;;;;;;7309378;19;20192;-79
2023/09/04 09:03:24;;;;;;;4.63;3.40;;;38.90;72.70;;;;;;7287140;19;20204;-78
2023/09/04 09:05:55;;;;;;;8.05;4.00;;;38.20;71.30;;;;;;7287644;19;20205;-79
2023/09/04 09:08:23;;;;;;;6.55;3.90;;;37.30;72.80;;;;;;7286050;19;20192;-80
2023/09/04 09:10:49;;;;;;;6.53;3.80;;;37.10;74.80;;;;;;7287584;19;20185;-79
2023/09/04 09:13:14;;;;;;;7.47;3.80;;;37.70;73.60;;;;;;7286203;19;20195;-79
2023/09/04 09:15:42;;;;;;;6.35;3.80;;;37.50;73.50;;;;;;7287909;19;20184;-79
2023/09/04 09:18:08;;;;;;;5.78;3.72;;;37.30;74.30;;;;;;7287659;19;20281;-80
2023/09/04 09:20:35;;;;;;;5.72;3.47;;;37.20;72.60;;;;;;7286960;19;20192;-79
2023/09/04 09:23:05;;;;;;;5.93;3.72;;;37.50;72.20;;;;;;7288333;19;20245;-78
2023/09/04 09:25:33;;;;;;;6.22;3.80;;;36.80;72.60;;;;;;7293918;19;20201;-79
2023/09/04 09:28:01;;;;;;;6.40;3.53;;;35.20;74.20;;;;;;7306143;19;20185;-79
2023/09/04 09:30:40;;;;;;;8.20;4.13;;;33.60;78.40;;;;;;7307476;19;20692;-79
2023/09/04 09:33:15;;;;;;;8.07;3.90;;;32.40;81.80;;;;;;7183210;19;2004759;-79
2023/09/04 09:35:42;;;;;;;8.43;4.15;;;31.40;84.20;;;;;;7286792;19;20255;-78
2023/09/04 09:38:08;;;;;;;7.07;4.03;;;31.40;84.90;;;;;;7287152;19;20219;-78
2023/09/04 09:40:34;;;;;;;7.10;3.80;;;31.20;86.60;;;;;;7286527;19;20211;-79
2023/09/04 09:43:00;;;;;;;9.48;4.00;;;30.70;87.90;;;;;;7295352;19;20649;-79
2023/09/04 09:45:34;;;;;;;8.18;3.75;;;30.50;90.40;;;;;;7307537;19;20297;-80
2023/09/04 09:48:11;;;;;;;7.63;3.47;;;31.30;90.40;;;;;;7280960;19;20236;-80
2023/09/04 09:50:38;;;;;;;5.95;3.40;;;32.80;87.80;;;;;;7287216;19;20756;-79
2023/09/04 09:53:04;;;;;;;6.28;3.40;;;34.10;84.90;;;;;;7286949;19;20675;-79
2023/09/04 09:55:32;;;;;;;7.97;3.38;;;35.20;79.90;;;;;;7296540;19;20699;-80
2023/09/04 09:57:59;;;;;;;6.18;3.13;;;36.40;76.40;;;;;;7309001;19;20217;-80
2023/09/04 10:00:28;;;;;;;5.18;3.00;;;37.20;75.10;;;;;;7286129;19;20241;-80
2023/09/04 10:02:54;;;;;;;7.43;3.08;;;38.10;74.90;;;;;;7285577;19;20189;-80
2023/09/04 10:05:25;;;;;;;5.15;3.08;;;37.70;70.60;;;;;;7286223;19;20282;-81
2023/09/04 10:07:58;;;;;;;5.63;3.22;;;37.40;72.90;;;;;;7285022;19;20193;-80
2023/09/04 10:10:24;;;;;;;6.38;3.13;;;37.50;71.10;;;;;;7286427;19;20193;-80
2023/09/04 10:13:16;;;;;;;6.65;3.45;;;37.90;71.40;;;;;;7285650;19;20596;-80
2023/09/04 10:15:46;;;;;;;6.22;3.00;;;38.10;70.80;;;;;;7184103;19;2004709;-80
2023/09/04 10:18:16;;;;;;;4.80;2.92;;;39.20;70.50;;;;;;7284517;19;20592;-80
2023/09/04 10:20:43;;;;;;;4.35;3.03;;;39.10;68.30;;;;;;7286208;19;20213;-78
2023/09/04 10:23:14;;;;;;;5.78;3.17;;;38.60;71.10;;;;;;7284578;19;20264;-80
2023/09/04 10:25:58;;;;;;;5.03;3.22;;;38.30;68.70;;;;;;7281138;19;20195;-80
2023/09/04 10:28:39;;;;;;;5.80;3.25;;;37.80;68.40;;;;;;7286136;19;20206;-80
2023/09/04 10:31:05;;;;;;;8.43;3.45;;;37.20;70.20;;;;;;7181819;19;2004626;-80
2023/09/04 10:33:31;;;;;;;7.95;3.85;;;37.40;70.50;;;;;;7288908;19;20181;-80
2023/09/04 10:36:01;;;;;;;5.05;3.47;;;37.10;69.90;;;;;;7306358;19;20277;-80
2023/09/04 10:38:27;;;;;;;10.70;3.53;;;36.70;69.70;;;;;;7284509;19;20722;-80
2023/09/04 10:40:53;;;;;;;5.18;3.35;;;36.80;70.20;;;;;;7284209;19;20188;-80
2023/09/04 10:43:19;;;;;;;7.22;3.10;;;37.20;69.30;;;;;;7284929;19;20243;-80
2023/09/04 10:46:13;;;;;;;6.05;3.20;;;37.10;70.60;;;;;;7283740;19;20787;-80
2023/09/04 10:48:42;;;;;;;6.55;3.20;;;36.60;66.00;;;;;;7181130;19;2005811;-80
2023/09/04 10:51:28;;;;;;;6.75;3.30;;;35.70;68.90;;;;;;7283600;19;20189;-80
2023/09/04 10:53:55;;;;;;;6.72;3.30;;;35.50;70.70;;;;;;7285590;19;20188;-80
2023/09/04 10:56:21;;;;;;;6.43;3.53;;;35.60;71.70;;;;;;7285404;19;20205;-80
2023/09/04 10:59:03;;;;;;;5.90;3.50;;;35.50;71.70;;;;;;7286372;19;20657;-80
2023/09/04 11:01:36;;;;;;;6.53;3.63;;;35.50;75.10;;;;;;7285119;19;20181;-80
2023/09/04 11:04:09;;;;;;;8.38;3.30;;;35.50;75.10;;;;;;7263543;19;20196;-79
2023/09/04 11:06:39;;;;;;;7.15;3.03;;;35.50;72.80;;;;;;7284591;19;20780;-80
2023/09/04 11:09:09;;;;;;;5.07;3.17;;;35.30;73.20;;;;;;7282798;19;20901;-80
2023/09/04 11:11:35;;;;;;;7.30;3.80;;;34.80;71.20;;;;;;7283758;19;20194;-79
2023/09/04 11:14:03;;;;;;;5.53;3.03;;;34.40;72.90;;;;;;7287810;19;20217;-79
2023/09/04 11:16:48;;;;;;;5.85;3.25;;;34.60;74.20;;;;;;7306438;19;20213;-80
2023/09/04 11:19:15;;;;;;;6.53;3.10;;;34.60;76.50;;;;;;7181289;19;2005993;-78
2023/09/04 11:21:45;;;;;;;4.85;3.05;;;35.10;73.50;;;;;;7280887;19;20205;-79
2023/09/04 11:24:11;;;;;;;4.70;3.25;;;35.40;74.20;;;;;;7282578;19;20591;-79
2023/09/04 11:26:40;;;;;;;7.40;3.30;;;35.10;73.30;;;;;;7280733;19;20193;-79
2023/09/04 11:29:06;;;;;;;4.80;3.05;;;35.10;74.40;;;;;;7282641;19;20232;-80
2023/09/04 11:31:33;;;;;;;13.80;3.13;;;34.30;74.00;;;;;;7283250;19;20539;-80
2023/09/04 11:33:59;;;;;;;4.93;3.08;;;33.80;75.70;;;;;;7304824;19;20189;-80
2023/09/04 11:36:26;;;;;;;3.50;2.67;;;33.20;74.90;;;;;;7282785;19;20193;-80
2023/09/04 11:39:06;;;;;;;4.65;2.80;;;32.80;77.00;;;;;;7282445;19;20205;-80
2023/09/04 11:41:32;;;;;;;5.68;3.20;;;33.30;78.90;;;;;;7261810;19;20686;-79
2023/09/04 11:43:58;;;;;;;8.25;3.33;;;34.10;76.10;;;;;;7305098;19;20644;-80
2023/09/04 11:46:25;;;;;;;5.72;2.83;;;34.30;77.10;;;;;;7283058;19;20784;-80
2023/09/04 11:48:51;;;;;;;4.40;2.92;;;35.00;73.10;;;;;;7281567;19;20197;-81
2023/09/04 11:51:17;;;;;;;3.97;2.47;;;35.10;71.40;;;;;;7284367;19;20680;-80
2023/09/04 11:53:45;;;;;;;5.38;2.70;;;34.50;71.10;;;;;;7279661;19;20189;-79
2023/09/04 11:56:11;;;;;;;8.05;2.92;;;34.40;71.40;;;;;;7282961;19;20260;-79
2023/09/04 11:58:37;;;;;;;4.57;2.63;;;34.70;71.90;;;;;;7281485;19;20216;-80
2023/09/04 12:01:02;;;;;;;4.60;2.80;;;34.90;71.90;;;;;;7282100;19;20286;-80
2023/09/04 12:03:28;;;;;;;3.53;2.50;;;34.60;73.80;;;;;;7305218;19;20641;-79
2023/09/04 12:05:55;;;;;;;4.90;2.63;;;35.10;71.90;;;;;;7289733;19;20925;-80
2023/09/04 12:08:21;;;;;;;6.50;3.40;;;35.70;72.80;;;;;;7288053;19;20182;-80
2023/09/04 12:10:50;;;;;;;5.65;2.95;;;35.50;74.00;;;;;;7290146;19;20537;-79
2023/09/04 12:13:16;;;;;;;20.30;16.40;;;35.30;72.20;;;;;;7288014;19;20206;-80
2023/09/04 12:15:42;;;;;;;5.97;3.67;;;35.20;71.60;;;;;;7287967;19;20213;-80
2023/09/04 12:18:10;;;;;;;5.63;3.17;;;34.80;71.60;;;;;;7288900;19;20921;-80
2023/09/04 12:20:40;;;;;;;5.47;3.33;;;34.70;71.50;;;;;;7288423;19;20248;-80
2023/09/04 12:23:06;;;;;;;5.20;3.28;;;34.50;73.30;;;;;;7288144;19;20184;-80
2023/09/04 12:25:39;;;;;;;4.97;2.90;;;34.70;73.80;;;;;;7289813;19;20712;-80
2023/09/04 12:28:10;;;;;;;5.22;2.65;;;34.40;72.20;;;;;;7287460;19;20193;-80
2023/09/04 12:30:40;;;;;;;5.53;2.80;;;34.30;71.70;;;;;;7288201;19;20199;-80
2023/09/04 12:33:09;;;;;;;4.97;2.33;;;34.30;71.60;;;;;;7287100;19;20244;-80
2023/09/04 12:35:35;;;;;;;3.40;2.47;;;33.50;69.90;;;;;;7288464;19;21101;-80